Andover, MN

2:22 AM CDT on August 28, 2016 (GMT -0500)
Lake John | | Change Station
Active Advisory: Dense Fog Advisory

Elev 1066 ft 45.26 °N, 94.16 °W | Updated 23 seconds ago

Overcast
Overcast
59.7 °F
Feels Like 59.7 °F
N
0.0
Wind Variable Wind from SE

Today
High -- | Low -- °F
--% Chance of Precip.
Yesterday
High -- | Low -- °F
Precip. -- in
Pressure 30.10 in
Visibility 2.0 miles
Clouds Overcast 100 ft
Dew Point 59 °F
Humidity 98%
Rainfall 0.00 in
Snow Depth Not available.
6:34 AM 8:00 PM
Waning Crescent, 18% visible
METAR KMGG 280713Z AUTO 00000KT 2SM BR OVC001 16/16 A3010 RMK AO2 T01600159
Pressure 30.10 in
Visibility 2.0 miles
Clouds Overcast 100 ft
Dew Point 59 °F
Humidity 98%
Rainfall 0.00 in
Snow Depth Not available.
6:34 AM 8:00 PM
Waning Crescent, 18% visible
METAR KMGG 280713Z AUTO 00000KT 2SM BR OVC001 16/16 A3010 RMK AO2 T01600159

10-Day Weather Forecast

Almanac

Astronomy

Aug. 28, 2016 Rise Set
Actual Time
Civil Twilight
Nautical Twilight
Astronomical Twilight
Moon
Length of Visible Light
Length of Day
Tomorrow will be .
, % of the Moon is Illuminated

Today's Extremes

State Highs State Lows

Community

WunderPhotos

Upload Photos

1,935,533 photos uploaded!

WunderBlog® & News

Nearby

Air Quality

  Air Quality AQ Index Pollutant
Not available.

Snow Depth

Station Depth Elevation

Earthquake Activity

City Distance Mag. Time & Date
Minimum magnitude displayed is 2.5.

Coastal Water Temperatures

Place Temperature

Stations

Nearby Weather Stations

Station Location Temp. Windchill Dew Point Humidity Wind Precip. Elev Updated Type
                   

Watches & Warnings

Dense Fog Advisory
Issued: 12:23 AM CDT Aug. 28, 2016 – National Weather Service

... Dense fog advisory remains in effect until 8 am CDT this
morning...

* visibility... less than a quarter mile.

* Impacts... it may be difficult to see the Road if you are out
driving tonight or early tomorrow morning.

Precautionary/preparedness actions...

A dense fog advisory means visibilities will frequently be
reduced to less than one quarter mile. If driving... slow down...
use your headlights... and leave plenty of distance ahead of you.